sensor_id;sensor_type;location;lat;lon;timestamp;pressure;altitude;pressure_sealevel;temperature;humidity
68226;BME280;55045;49.410;11.030;2023-03-04T00:00:15;98528.47;;;-2.15;100.00
68226;BME280;55045;49.410;11.030;2023-03-04T00:03:19;98531.88;;;-2.14;100.00
68226;BME280;55045;49.410;11.030;2023-03-04T00:06:24;98537.88;;;-2.05;100.00
68226;BME280;55045;49.410;11.030;2023-03-04T00:09:27;98525.16;;;-2.06;100.00
68226;BME280;55045;49.410;11.030;2023-03-04T00:12:30;98525.88;;;-2.22;100.00
68226;BME280;55045;49.410;11.030;2023-03-04T00:15:33;98532.69;;;-2.15;100.00
68226;BME280;55045;49.410;11.030;2023-03-04T00:18:36;98541.13;;;-2.21;100.00
68226;BME280;55045;49.410;11.030;2023-03-04T00:21:41;98536.09;;;-2.15;100.00
68226;BME280;55045;49.410;11.030;2023-03-04T00:24:45;98537.72;;;-2.23;100.00
68226;BME280;55045;49.410;11.030;2023-03-04T00:27:48;98537.75;;;-2.17;100.00
68226;BME280;55045;49.410;11.030;2023-03-04T00:30:51;98533.41;;;-2.30;100.00
68226;BME280;55045;49.410;11.030;2023-03-04T00:33:54;98432.97;;;-2.87;100.00
68226;BME280;55045;49.410;11.030;2023-03-04T00:36:59;98528.25;;;-2.41;100.00
68226;BME280;55045;49.410;11.030;2023-03-04T00:40:05;98529.94;;;-2.41;100.00
68226;BME280;55045;49.410;11.030;2023-03-04T00:43:08;98535.63;;;-2.62;100.00
68226;BME280;55045;49.410;11.030;2023-03-04T00:46:12;98542.50;;;-2.55;100.00
68226;BME280;55045;49.410;11.030;2023-03-04T00:49:15;98533.13;;;-2.59;100.00
68226;BME280;55045;49.410;11.030;2023-03-04T00:52:19;98540.81;;;-2.54;100.00
68226;BME280;55045;49.410;11.030;2023-03-04T00:55:23;98468.25;;;-3.10;100.00
68226;BME280;55045;49.410;11.030;2023-03-04T00:58:26;98521.22;;;-2.65;100.00
68226;BME280;55045;49.410;11.030;2023-03-04T01:01:29;98544.88;;;-2.67;100.00
68226;BME280;55045;49.410;11.030;2023-03-04T01:04:33;98534.78;;;-2.63;100.00
68226;BME280;55045;49.410;11.030;2023-03-04T01:07:37;98544.13;;;-2.58;100.00
68226;BME280;55045;49.410;11.030;2023-03-04T01:10:40;98535.56;;;-2.68;100.00
68226;BME280;55045;49.410;11.030;2023-03-04T01:13:44;98527.28;;;-2.50;100.00
68226;BME280;55045;49.410;11.030;2023-03-04T01:16:47;98528.00;;;-2.65;100.00
68226;BME280;55045;49.410;11.030;2023-03-04T01:19:50;98521.97;;;-2.75;100.00
68226;BME280;55045;49.410;11.030;2023-03-04T01:22:55;98517.91;;;-2.57;100.00
68226;BME280;55045;49.410;11.030;2023-03-04T01:25:58;98524.44;;;-2.79;100.00
68226;BME280;55045;49.410;11.030;2023-03-04T01:29:02;98520.28;;;-2.76;100.00
68226;BME280;55045;49.410;11.030;2023-03-04T01:32:06;98515.94;;;-2.84;100.00
68226;BME280;55045;49.410;11.030;2023-03-04T01:35:09;98509.94;;;-2.91;100.00
68226;BME280;55045;49.410;11.030;2023-03-04T01:38:14;98429.81;;;-3.43;100.00
68226;BME280;55045;49.410;11.030;2023-03-04T01:41:22;98518.94;;;-3.16;100.00
68226;BME280;55045;49.410;11.030;2023-03-04T01:44:26;98515.59;;;-3.12;100.00
68226;BME280;55045;49.410;11.030;2023-03-04T01:47:31;98496.66;;;-3.38;100.00
68226;BME280;55045;49.410;11.030;2023-03-04T01:50:35;98517.31;;;-3.11;100.00
68226;BME280;55045;49.410;11.030;2023-03-04T01:53:40;98484.34;;;-3.08;100.00
68226;BME280;55045;49.410;11.030;2023-03-04T01:56:45;98512.31;;;-3.06;100.00
68226;BME280;55045;49.410;11.030;2023-03-04T02:00:10;98520.94;;;-2.91;100.00
68226;BME280;55045;49.410;11.030;2023-03-04T02:03:19;98510.03;;;-2.83;100.00
68226;BME280;55045;49.410;11.030;2023-03-04T02:06:22;98513.41;;;-2.83;100.00
68226;BME280;55045;49.410;11.030;2023-03-04T02:09:28;98509.66;;;-3.15;100.00
68226;BME280;55045;49.410;11.030;2023-03-04T02:12:31;98499.50;;;-3.15;100.00
68226;BME280;55045;49.410;11.030;2023-03-04T02:15:35;98501.97;;;-3.19;100.00
68226;BME280;55045;49.410;11.030;2023-03-04T02:18:38;98503.38;;;-3.42;100.00
68226;BME280;55045;49.410;11.030;2023-03-04T02:21:42;98494.94;;;-3.39;100.00
68226;BME280;55045;49.410;11.030;2023-03-04T02:24:49;98494.28;;;-3.26;100.00
68226;BME280;55045;49.410;11.030;2023-03-04T02:27:56;98497.63;;;-3.29;100.00
68226;BME280;55045;49.410;11.030;2023-03-04T02:30:59;98491.78;;;-3.25;100.00
68226;BME280;55045;49.410;11.030;2023-03-04T02:34:05;98487.56;;;-3.24;100.00
68226;BME280;55045;49.410;11.030;2023-03-04T02:37:09;98480.66;;;-3.34;100.00
68226;BME280;55045;49.410;11.030;2023-03-04T02:40:15;98486.50;;;-3.38;100.00
68226;BME280;55045;49.410;11.030;2023-03-04T02:43:25;98480.84;;;-3.19;100.00
68226;BME280;55045;49.410;11.030;2023-03-04T02:46:28;98481.38;;;-3.44;100.00
68226;BME280;55045;49.410;11.030;2023-03-04T02:49:33;98476.31;;;-3.43;100.00
68226;BME280;55045;49.410;11.030;2023-03-04T02:52:37;98473.09;;;-3.31;100.00
68226;BME280;55045;49.410;11.030;2023-03-04T02:55:41;98466.16;;;-3.46;100.00
68226;BME280;55045;49.410;11.030;2023-03-04T02:58:46;98468.03;;;-3.28;100.00
68226;BME280;55045;49.410;11.030;2023-03-04T03:01:54;98447.34;;;-3.60;100.00
68226;BME280;55045;49.410;11.030;2023-03-04T03:04:57;98462.94;;;-3.31;100.00
68226;BME280;55045;49.410;11.030;2023-03-04T03:08:01;98461.19;;;-3.37;100.00
68226;BME280;55045;49.410;11.030;2023-03-04T03:11:05;98465.34;;;-3.40;100.00
68226;BME280;55045;49.410;11.030;2023-03-04T03:14:12;98469.66;;;-3.36;100.00
68226;BME280;55045;49.410;11.030;2023-03-04T03:17:15;98466.34;;;-3.28;100.00
68226;BME280;55045;49.410;11.030;2023-03-04T03:20:18;98461.91;;;-3.47;100.00
68226;BME280;55045;49.410;11.030;2023-03-04T03:23:22;98471.22;;;-3.46;100.00
68226;BME280;55045;49.410;11.030;2023-03-04T03:26:26;98467.97;;;-3.36;100.00
68226;BME280;55045;49.410;11.030;2023-03-04T03:29:31;98474.63;;;-3.44;100.00
68226;BME280;55045;49.410;11.030;2023-03-04T03:32:34;98476.91;;;-3.62;100.00
68226;BME280;55045;49.410;11.030;2023-03-04T03:35:38;98480.38;;;-3.57;100.00
68226;BME280;55045;49.410;11.030;2023-03-04T03:38:41;98482.84;;;-3.59;100.00
68226;BME280;55045;49.410;11.030;2023-03-04T03:41:44;98481.41;;;-3.40;100.00
68226;BME280;55045;49.410;11.030;2023-03-04T03:44:48;98477.06;;;-3.50;100.00
68226;BME280;55045;49.410;11.030;2023-03-04T03:47:52;98483.69;;;-3.61;100.00
68226;BME280;55045;49.410;11.030;2023-03-04T03:50:55;98483.69;;;-3.61;100.00
68226;BME280;55045;49.410;11.030;2023-03-04T03:54:00;98479.31;;;-3.70;100.00
68226;BME280;55045;49.410;11.030;2023-03-04T03:57:03;98476.81;;;-3.68;100.00
68226;BME280;55045;49.410;11.030;2023-03-04T04:00:09;98482.13;;;-3.50;100.00
68226;BME280;55045;49.410;11.030;2023-03-04T04:03:16;98462.25;;;-3.83;100.00
68226;BME280;55045;49.410;11.030;2023-03-04T04:06:20;98487.19;;;-3.53;100.00
68226;BME280;55045;49.410;11.030;2023-03-04T04:09:23;98486.63;;;-3.28;100.00
68226;BME280;55045;49.410;11.030;2023-03-04T04:12:27;98495.59;;;-3.56;100.00
68226;BME280;55045;49.410;11.030;2023-03-04T04:15:31;98501.81;;;-3.34;100.00
68226;BME280;55045;49.410;11.030;2023-03-04T04:18:34;98508.00;;;-3.10;100.00
68226;BME280;55045;49.410;11.030;2023-03-04T04:21:38;98508.69;;;-3.24;100.00
68226;BME280;55045;49.410;11.030;2023-03-04T04:24:41;98520.13;;;-3.53;100.00
68226;BME280;55045;49.410;11.030;2023-03-04T04:27:44;98520.06;;;-3.58;100.00
68226;BME280;55045;49.410;11.030;2023-03-04T04:34:23;98522.94;;;-3.35;100.00
68226;BME280;55045;49.410;11.030;2023-03-04T04:37:27;98434.97;;;-3.99;100.00
68226;BME280;55045;49.410;11.030;2023-03-04T04:40:30;98523.19;;;-3.13;100.00
68226;BME280;55045;49.410;11.030;2023-03-04T04:43:34;98524.50;;;-3.44;100.00
68226;BME280;55045;49.410;11.030;2023-03-04T04:46:37;98522.06;;;-3.35;100.00
68226;BME280;55045;49.410;11.030;2023-03-04T04:49:42;98527.47;;;-3.09;100.00
68226;BME280;55045;49.410;11.030;2023-03-04T04:52:45;98521.81;;;-3.54;100.00
68226;BME280;55045;49.410;11.030;2023-03-04T04:55:49;98524.03;;;-3.14;100.00
68226;BME280;55045;49.410;11.030;2023-03-04T04:58:53;98526.38;;;-3.30;100.00
68226;BME280;55045;49.410;11.030;2023-03-04T05:01:57;98527.94;;;-3.38;100.00
68226;BME280;55045;49.410;11.030;2023-03-04T05:05:01;98525.31;;;-3.47;100.00
68226;BME280;55045;49.410;11.030;2023-03-04T05:08:04;98527.56;;;-3.03;100.00
68226;BME280;55045;49.410;11.030;2023-03-04T05:11:08;98521.25;;;-3.33;100.00
68226;BME280;55045;49.410;11.030;2023-03-04T05:14:11;98527.44;;;-3.11;100.00
68226;BME280;55045;49.410;11.030;2023-03-04T05:17:14;98526.47;;;-3.22;100.00
68226;BME280;55045;49.410;11.030;2023-03-04T05:20:19;98525.66;;;-3.18;100.00
68226;BME280;55045;49.410;11.030;2023-03-04T05:23:26;98525.97;;;-2.95;100.00
68226;BME280;55045;49.410;11.030;2023-03-04T05:26:29;98531.91;;;-2.93;100.00
68226;BME280;55045;49.410;11.030;2023-03-04T05:29:32;98537.56;;;-3.15;100.00
68226;BME280;55045;49.410;11.030;2023-03-04T05:32:35;98536.00;;;-3.03;100.00
68226;BME280;55045;49.410;11.030;2023-03-04T05:35:41;98535.28;;;-2.94;100.00
68226;BME280;55045;49.410;11.030;2023-03-04T05:38:44;98542.06;;;-2.93;100.00
68226;BME280;55045;49.410;11.030;2023-03-04T05:41:48;98540.28;;;-2.97;100.00
68226;BME280;55045;49.410;11.030;2023-03-04T05:44:51;98535.41;;;-2.82;100.00
68226;BME280;55045;49.410;11.030;2023-03-04T05:47:54;98539.66;;;-2.82;100.00
68226;BME280;55045;49.410;11.030;2023-03-04T05:51:00;98547.03;;;-3.01;100.00
68226;BME280;55045;49.410;11.030;2023-03-04T05:54:03;98543.59;;;-3.06;100.00
68226;BME280;55045;49.410;11.030;2023-03-04T05:57:07;98552.22;;;-2.93;100.00
68226;BME280;55045;49.410;11.030;2023-03-04T06:00:11;98556.16;;;-3.15;100.00
68226;BME280;55045;49.410;11.030;2023-03-04T06:03:15;98558.69;;;-3.16;100.00
68226;BME280;55045;49.410;11.030;2023-03-04T06:06:20;98544.22;;;-3.24;100.00
68226;BME280;55045;49.410;11.030;2023-03-04T06:09:23;98551.06;;;-3.16;100.00
68226;BME280;55045;49.410;11.030;2023-03-04T06:12:27;98552.78;;;-3.15;100.00
68226;BME280;55045;49.410;11.030;2023-03-04T06:15:30;98567.88;;;-3.25;100.00
68226;BME280;55045;49.410;11.030;2023-03-04T06:18:34;98556.16;;;-3.15;100.00
68226;BME280;55045;49.410;11.030;2023-03-04T06:21:38;98563.75;;;-3.16;100.00
68226;BME280;55045;49.410;11.030;2023-03-04T06:24:41;98558.63;;;-3.20;100.00
68226;BME280;55045;49.410;11.030;2023-03-04T06:27:44;98563.81;;;-3.10;100.00
68226;BME280;55045;49.410;11.030;2023-03-04T06:30:50;98573.13;;;-3.11;100.00
68226;BME280;55045;49.410;11.030;2023-03-04T06:33:54;98568.91;;;-3.09;100.00
68226;BME280;55045;49.410;11.030;2023-03-04T06:36:58;98569.06;;;-2.98;100.00
68226;BME280;55045;49.410;11.030;2023-03-04T06:40:02;98578.47;;;-2.90;100.00
68226;BME280;55045;49.410;11.030;2023-03-04T06:43:06;98576.94;;;-2.77;100.00
68226;BME280;55045;49.410;11.030;2023-03-04T06:46:09;98564.44;;;-2.60;100.00
68226;BME280;55045;49.410;11.030;2023-03-04T06:49:12;98576.97;;;-2.74;100.00
68226;BME280;55045;49.410;11.030;2023-03-04T06:52:17;98579.78;;;-2.51;100.00
68226;BME280;55045;49.410;11.030;2023-03-04T06:55:20;98577.97;;;-2.63;100.00
68226;BME280;55045;49.410;11.030;2023-03-04T06:58:23;98583.31;;;-2.35;100.00
68226;BME280;55045;49.410;11.030;2023-03-04T07:01:28;98586.44;;;-2.61;100.00
68226;BME280;55045;49.410;11.030;2023-03-04T07:04:31;98589.78;;;-2.65;100.00
68226;BME280;55045;49.410;11.030;2023-03-04T07:07:36;98592.47;;;-2.51;100.00
68226;BME280;55045;49.410;11.030;2023-03-04T07:10:39;98593.22;;;-2.59;100.00
68226;BME280;55045;49.410;11.030;2023-03-04T07:13:43;98605.19;;;-2.49;100.00
68226;BME280;55045;49.410;11.030;2023-03-04T07:16:46;98599.22;;;-2.53;100.00
68226;BME280;55045;49.410;11.030;2023-03-04T07:19:49;98600.19;;;-2.43;100.00
68226;BME280;55045;49.410;11.030;2023-03-04T07:22:54;98606.34;;;-2.23;100.00
68226;BME280;55045;49.410;11.030;2023-03-04T07:25:57;98602.00;;;-2.30;100.00
68226;BME280;55045;49.410;11.030;2023-03-04T07:29:01;98594.53;;;-2.15;100.00
68226;BME280;55045;49.410;11.030;2023-03-04T07:32:06;98592.13;;;-2.03;100.00
68226;BME280;55045;49.410;11.030;2023-03-04T07:35:10;98597.97;;;-2.13;100.00
68226;BME280;55045;49.410;11.030;2023-03-04T07:38:15;98598.16;;;-1.93;100.00
68226;BME280;55045;49.410;11.030;2023-03-04T07:41:18;98597.50;;;-1.66;100.00
68226;BME280;55045;49.410;11.030;2023-03-04T07:44:22;98599.97;;;-1.78;100.00
68226;BME280;55045;49.410;11.030;2023-03-04T07:47:26;98595.03;;;-1.61;100.00
68226;BME280;55045;49.410;11.030;2023-03-04T07:50:29;98601.78;;;-1.63;100.00
68226;BME280;55045;49.410;11.030;2023-03-04T07:53:34;98595.88;;;-1.59;100.00
68226;BME280;55045;49.410;11.030;2023-03-04T07:56:38;98579.09;;;-1.34;100.00
68226;BME280;55045;49.410;11.030;2023-03-04T07:59:41;98593.50;;;-1.35;100.00
68226;BME280;55045;49.410;11.030;2023-03-04T08:02:44;98591.81;;;-1.34;100.00
68226;BME280;55045;49.410;11.030;2023-03-04T08:05:48;98600.34;;;-1.28;100.00
68226;BME280;55045;49.410;11.030;2023-03-04T08:08:57;98596.25;;;-1.03;100.00
68226;BME280;55045;49.410;11.030;2023-03-04T08:12:00;98505.88;;;-1.78;100.00
68226;BME280;55045;49.410;11.030;2023-03-04T08:15:04;98601.38;;;-0.92;100.00
68226;BME280;55045;49.410;11.030;2023-03-04T08:18:08;98593.63;;;-1.13;100.00
68226;BME280;55045;49.410;11.030;2023-03-04T08:21:12;98599.56;;;-1.19;100.00
68226;BME280;55045;49.410;11.030;2023-03-04T08:24:17;98602.97;;;-1.14;100.00
68226;BME280;55045;49.410;11.030;2023-03-04T08:27:20;98600.34;;;-1.23;100.00
68226;BME280;55045;49.410;11.030;2023-03-04T08:30:23;98594.41;;;-1.25;100.00
68226;BME280;55045;49.410;11.030;2023-03-04T08:33:27;98593.63;;;-1.20;100.00
68226;BME280;55045;49.410;11.030;2023-03-04T08:36:30;98593.63;;;-1.13;100.00
68226;BME280;55045;49.410;11.030;2023-03-04T08:39:35;98596.16;;;-1.15;100.00
68226;BME280;55045;49.410;11.030;2023-03-04T08:42:38;98596.25;;;-1.03;100.00
68226;BME280;55045;49.410;11.030;2023-03-04T08:45:41;98600.53;;;-1.00;100.00
68226;BME280;55045;49.410;11.030;2023-03-04T08:48:45;98592.88;;;-1.02;100.00
68226;BME280;55045;49.410;11.030;2023-03-04T08:51:48;98581.06;;;-0.88;100.00
68226;BME280;55045;49.410;11.030;2023-03-04T08:54:52;98583.66;;;-0.77;100.00
68226;BME280;55045;49.410;11.030;2023-03-04T08:57:56;98587.75;;;-1.03;100.00
68226;BME280;55045;49.410;11.030;2023-03-04T09:01:00;98557.97;;;-1.20;100.00
68226;BME280;55045;49.410;11.030;2023-03-04T09:04:03;98592.88;;;-0.97;100.00
68226;BME280;55045;49.410;11.030;2023-03-04T09:07:06;98600.63;;;-0.79;100.00
68226;BME280;55045;49.410;11.030;2023-03-04T09:10:12;98594.69;;;-0.72;100.00
68226;BME280;55045;49.410;11.030;2023-03-04T09:13:15;98598.03;;;-0.90;100.00
68226;BME280;55045;49.410;11.030;2023-03-04T09:16:18;98596.38;;;-0.75;100.00
68226;BME280;55045;49.410;11.030;2023-03-04T09:19:21;98603.16;;;-0.77;100.00
68226;BME280;55045;49.410;11.030;2023-03-04T09:22:25;98596.47;;;-0.54;100.00
68226;BME280;55045;49.410;11.030;2023-03-04T09:25:29;98598.06;;;-0.76;100.00
68226;BME280;55045;49.410;11.030;2023-03-04T09:28:32;98594.72;;;-0.64;100.00
68226;BME280;55045;49.410;11.030;2023-03-04T09:31:38;98603.25;;;-0.56;100.00
68226;BME280;55045;49.410;11.030;2023-03-04T09:34:41;98599.03;;;-0.49;100.00
68226;BME280;55045;49.410;11.030;2023-03-04T09:37:45;98594.81;;;-0.50;100.00
68226;BME280;55045;49.410;11.030;2023-03-04T09:40:51;98590.59;;;-0.39;100.00
68226;BME280;55045;49.410;11.030;2023-03-04T09:43:55;98593.09;;;-0.45;100.00
68226;BME280;55045;49.410;11.030;2023-03-04T09:51:05;98590.56;;;-0.47;100.00
68226;BME280;55045;49.410;11.030;2023-03-04T09:54:19;98594.88;;;-0.29;100.00
68226;BME280;55045;49.410;11.030;2023-03-04T09:57:33;98596.56;;;-0.28;100.00
68226;BME280;55045;49.410;11.030;2023-03-04T10:00:43;98599.09;;;-0.23;100.00
68226;BME280;55045;49.410;11.030;2023-03-04T10:03:49;98599.09;;;-0.26;100.00
68226;BME280;55045;49.410;11.030;2023-03-04T10:06:54;98566.81;;;-0.23;100.00
68226;BME280;55045;49.410;11.030;2023-03-04T10:10:04;98583.00;;;-0.07;100.00
68226;BME280;55045;49.410;11.030;2023-03-04T10:13:13;98579.59;;;-0.12;100.00
68226;BME280;55045;49.410;11.030;2023-03-04T10:58:41;98568.53;;;0.61;100.00
68226;BME280;55045;49.410;11.030;2023-03-04T11:01:44;98568.53;;;0.61;100.00
68226;BME280;55045;49.410;11.030;2023-03-04T11:04:53;98566.84;;;0.63;100.00
68226;BME280;55045;49.410;11.030;2023-03-04T11:07:58;98566.84;;;0.66;100.00
68226;BME280;55045;49.410;11.030;2023-03-04T11:11:02;98558.34;;;0.65;100.00
68226;BME280;55045;49.410;11.030;2023-03-04T11:14:13;98539.56;;;0.80;100.00
68226;BME280;55045;49.410;11.030;2023-03-04T11:17:23;98555.78;;;0.68;100.00
68226;BME280;55045;49.410;11.030;2023-03-04T11:20:30;98551.53;;;0.60;100.00
68226;BME280;55045;49.410;11.030;2023-03-04T11:23:43;98555.78;;;0.65;100.00
68226;BME280;55045;49.410;11.030;2023-03-04T11:26:52;98557.47;;;0.75;100.00
68226;BME280;55045;49.410;11.030;2023-03-04T11:30:03;98559.97;;;1.03;100.00
68226;BME280;55045;49.410;11.030;2023-03-04T11:33:18;98554.06;;;0.67;100.00
68226;BME280;55045;49.410;11.030;2023-03-04T11:36:32;98544.69;;;0.84;100.00
68226;BME280;55045;49.410;11.030;2023-03-04T11:39:41;98548.88;;;1.05;100.00
68226;BME280;55045;49.410;11.030;2023-03-04T11:42:50;98544.63;;;0.98;100.00
68226;BME280;55045;49.410;11.030;2023-03-04T11:46:15;98542.09;;;0.97;100.00
68226;BME280;55045;49.410;11.030;2023-03-04T11:49:32;98536.13;;;0.92;100.00
68226;BME280;55045;49.410;11.030;2023-03-04T11:52:58;98510.69;;;0.72;100.00
68226;BME280;55045;49.410;11.030;2023-03-04T11:56:15;98534.47;;;0.80;100.00
68226;BME280;55045;49.410;11.030;2023-03-04T11:59:46;98530.19;;;0.80;100.00
68226;BME280;55045;49.410;11.030;2023-03-04T12:03:11;98531.03;;;0.90;100.00
68226;BME280;55045;49.410;11.030;2023-03-04T12:06:26;98509.78;;;0.80;100.00
68226;BME280;55045;49.410;11.030;2023-03-04T12:09:39;98505.47;;;1.02;100.00
68226;BME280;55045;49.410;11.030;2023-03-04T12:12:55;98498.63;;;1.06;100.00
68226;BME280;55045;49.410;11.030;2023-03-04T12:16:30;98496.94;;;1.00;100.00
68226;BME280;55045;49.410;11.030;2023-03-04T12:19:46;98502.91;;;1.04;100.00
68226;BME280;55045;49.410;11.030;2023-03-04T12:22:56;98499.56;;;0.80;100.00
68226;BME280;55045;49.410;11.030;2023-03-04T12:26:06;98493.56;;;0.91;100.00
68226;BME280;55045;49.410;11.030;2023-03-04T12:29:27;98486.81;;;0.83;100.00
68226;BME280;55045;49.410;11.030;2023-03-04T12:32:38;98491.03;;;0.89;100.00
68226;BME280;55045;49.410;11.030;2023-03-04T12:35:51;98486.81;;;0.80;100.00
68226;BME280;55045;49.410;11.030;2023-03-04T12:39:14;98414.53;;;0.60;100.00
68226;BME280;55045;49.410;11.030;2023-03-04T12:42:28;98485.81;;;1.18;100.00
68226;BME280;55045;49.410;11.030;2023-03-04T12:45:43;98480.69;;;1.17;100.00
68226;BME280;55045;49.410;11.030;2023-03-04T12:48:59;98462.06;;;0.95;100.00
68226;BME280;55045;49.410;11.030;2023-03-04T12:52:10;98477.31;;;1.10;100.00
68226;BME280;55045;49.410;11.030;2023-03-04T12:55:17;98480.72;;;1.15;100.00
68226;BME280;55045;49.410;11.030;2023-03-04T12:58:24;98478.19;;;1.01;100.00
68226;BME280;55045;49.410;11.030;2023-03-04T13:01:32;98475.66;;;1.03;100.00
68226;BME280;55045;49.410;11.030;2023-03-04T13:04:48;98479.06;;;0.99;100.00
68226;BME280;55045;49.410;11.030;2023-03-04T13:08:02;98469.69;;;1.01;100.00
68226;BME280;55045;49.410;11.030;2023-03-04T13:11:39;98473.06;;;1.10;100.00
68226;BME280;55045;49.410;11.030;2023-03-04T13:18:31;98464.59;;;1.05;100.00
68226;BME280;55045;49.410;11.030;2023-03-04T13:21:43;98456.06;;;1.06;100.00
68226;BME280;55045;49.410;11.030;2023-03-04T13:24:49;98455.13;;;1.18;100.00
68226;BME280;55045;49.410;11.030;2023-03-04T13:28:11;98453.41;;;1.20;100.00
68226;BME280;55045;49.410;11.030;2023-03-04T13:31:21;98446.63;;;1.19;100.00
68226;BME280;55045;49.410;11.030;2023-03-04T13:34:48;98437.25;;;1.20;100.00
68226;BME280;55045;49.410;11.030;2023-03-04T13:37:56;98443.16;;;1.28;100.00
68226;BME280;55045;49.410;11.030;2023-03-04T13:41:11;98447.44;;;1.21;100.00
68226;BME280;55045;49.410;11.030;2023-03-04T13:48:02;98441.47;;;1.22;100.00
68226;BME280;55045;49.410;11.030;2023-03-04T13:51:13;98436.44;;;1.10;100.00
68226;BME280;55045;49.410;11.030;2023-03-04T13:54:31;98440.66;;;1.23;100.00
68226;BME280;55045;49.410;11.030;2023-03-04T13:57:36;98431.34;;;1.10;100.00
68226;BME280;55045;49.410;11.030;2023-03-04T14:00:46;98426.16;;;1.24;100.00
68226;BME280;55045;49.410;11.030;2023-03-04T14:03:50;98431.28;;;1.21;100.00
68226;BME280;55045;49.410;11.030;2023-03-04T14:06:55;98427.81;;;1.29;100.00
68226;BME280;55045;49.410;11.030;2023-03-04T14:10:03;98425.31;;;1.19;100.00
68226;BME280;55045;49.410;11.030;2023-03-04T14:13:11;98423.59;;;1.21;100.00
68226;BME280;55045;49.410;11.030;2023-03-04T14:16:19;98347.19;;;0.89;100.00
68226;BME280;55045;49.410;11.030;2023-03-04T14:19:24;98394.72;;;1.14;100.00
68226;BME280;55045;49.410;11.030;2023-03-04T14:22:29;98408.28;;;1.24;100.00
68226;BME280;55045;49.410;11.030;2023-03-04T14:25:36;98403.94;;;1.36;100.00
68226;BME280;55045;49.410;11.030;2023-03-04T14:28:45;98402.31;;;1.25;100.00
68226;BME280;55045;49.410;11.030;2023-03-04T14:31:49;98402.28;;;1.26;100.00
68226;BME280;55045;49.410;11.030;2023-03-04T14:34:55;98395.53;;;1.19;100.00
68226;BME280;55045;49.410;11.030;2023-03-04T14:38:01;98402.22;;;1.37;100.00
68226;BME280;55045;49.410;11.030;2023-03-04T14:41:08;98399.72;;;1.29;100.00
68226;BME280;55045;49.410;11.030;2023-03-04T14:44:23;98394.16;;;1.86;100.00
68226;BME280;55045;49.410;11.030;2023-03-04T14:47:34;98386.81;;;1.48;100.00
68226;BME280;55045;49.410;11.030;2023-03-04T14:50:47;98372.47;;;1.28;100.00
68226;BME280;55045;49.410;11.030;2023-03-04T14:53:54;98384.16;;;1.58;100.00
68226;BME280;55045;49.410;11.030;2023-03-04T14:56:59;98376.53;;;1.55;100.00
68226;BME280;55045;49.410;11.030;2023-03-04T15:00:22;98379.91;;;1.57;100.00
68226;BME280;55045;49.410;11.030;2023-03-04T15:03:27;98348.63;;;1.28;100.00
68226;BME280;55045;49.410;11.030;2023-03-04T15:06:33;98379.22;;;1.38;100.00
68226;BME280;55045;49.410;11.030;2023-03-04T15:09:38;98363.84;;;1.41;100.00
68226;BME280;55045;49.410;11.030;2023-03-04T15:12:50;98364.66;;;1.47;100.00
68226;BME280;55045;49.410;11.030;2023-03-04T15:16:00;98368.13;;;1.39;100.00
68226;BME280;55045;49.410;11.030;2023-03-04T15:19:19;98370.66;;;1.41;100.00
68226;BME280;55045;49.410;11.030;2023-03-04T15:22:25;98336.72;;;1.22;100.00
68226;BME280;55045;49.410;11.030;2023-03-04T15:25:29;98369.78;;;1.45;100.00
68226;BME280;55045;49.410;11.030;2023-03-04T15:28:34;98355.34;;;1.38;100.00
68226;BME280;55045;49.410;11.030;2023-03-04T15:31:40;98359.59;;;1.43;100.00
68226;BME280;55045;49.410;11.030;2023-03-04T15:34:44;98361.25;;;1.48;100.00
68226;BME280;55045;49.410;11.030;2023-03-04T15:37:49;98367.28;;;1.39;100.00
68226;BME280;55045;49.410;11.030;2023-03-04T15:40:54;98364.69;;;1.45;100.00
68226;BME280;55045;49.410;11.030;2023-03-04T15:43:59;98356.22;;;1.38;100.00
68226;BME280;55045;49.410;11.030;2023-03-04T15:47:04;98355.28;;;1.47;100.00
68226;BME280;55045;49.410;11.030;2023-03-04T15:50:10;98355.38;;;1.36;100.00
68226;BME280;55045;49.410;11.030;2023-03-04T15:53:16;98356.25;;;1.35;100.00
68226;BME280;55045;49.410;11.030;2023-03-04T15:56:23;98349.38;;;1.39;100.00
68226;BME280;55045;49.410;11.030;2023-03-04T15:59:26;98350.22;;;1.39;100.00
68226;BME280;55045;49.410;11.030;2023-03-04T16:02:31;98351.09;;;1.38;100.00
68226;BME280;55045;49.410;11.030;2023-03-04T16:05:36;98350.16;;;1.50;100.00
68226;BME280;55045;49.410;11.030;2023-03-04T16:08:40;98346.66;;;1.60;100.00
68226;BME280;55045;49.410;11.030;2023-03-04T16:11:45;98347.63;;;1.46;100.00
68226;BME280;55045;49.410;11.030;2023-03-04T16:14:48;98353.63;;;1.40;100.00
68226;BME280;55045;49.410;11.030;2023-03-04T16:17:53;98344.31;;;1.36;100.00
68226;BME280;55045;49.410;11.030;2023-03-04T16:20:57;98352.78;;;1.39;100.00
68226;BME280;55045;49.410;11.030;2023-03-04T16:24:01;98344.28;;;1.37;100.00
68226;BME280;55045;49.410;11.030;2023-03-04T16:27:07;98345.78;;;1.64;100.00
68226;BME280;55045;49.410;11.030;2023-03-04T16:30:14;98350.22;;;1.44;100.00
68226;BME280;55045;49.410;11.030;2023-03-04T16:34:23;98340.94;;;1.31;100.00
68226;BME280;55045;49.410;11.030;2023-03-04T16:37:26;98342.56;;;1.39;100.00
68226;BME280;55045;49.410;11.030;2023-03-04T16:40:30;98345.16;;;1.36;100.00
68226;BME280;55045;49.410;11.030;2023-03-04T16:43:33;98334.13;;;1.30;100.00
68226;BME280;55045;49.410;11.030;2023-03-04T16:46:36;98342.66;;;1.29;100.00
68226;BME280;55045;49.410;11.030;2023-03-04T16:49:41;98346.03;;;1.35;100.00
68226;BME280;55045;49.410;11.030;2023-03-04T16:52:45;98348.59;;;1.34;100.00
68226;BME280;55045;49.410;11.030;2023-03-04T16:55:49;98329.00;;;1.31;100.00
68226;BME280;55045;49.410;11.030;2023-03-04T16:58:53;98344.31;;;1.33;100.00
68226;BME280;55045;49.410;11.030;2023-03-04T17:01:56;98341.75;;;1.33;100.00